Strona główna
METAR-TAF:

METAR-TAF

Lotnisko :

Boscombe Down, Anglia

Szerokość geograficzna: 51-10N, Długość geograficzna: 001-45W, wysokość: 124 m

Aktualna obserwacja pogody

Raport powstał 1 godzina i 10 minut temu, godzina 13:50 UTC
Wiatr 25 kt od północny wschód
Temperatura 9°C
Wilgotność 66%
Ciśnienie 1028 hPa
Widzialność 10 km lub więcej

METAR: EGDM 281350Z AUTO 04025KT 9999 BKN023/// SCT029/// BKN090/// 09/03 Q1028

czas: 15:00 (15:00 UTC)

Prognoza

Raport powstał 31 godziny i 10 minut temu, godzina 07:50 UTC
Prognoza ważna od 27 godzina 09 UTC do 27 godzina 18 UTC
Wiatr 12 kt od północno-północny wschód
Widzialność 10 km lub więcej
Mało chmury na wysokości 3500 ft

TAF: EGDM 270750Z 2709/2718 03012KT 9999 FEW035

Obserwacja i prognoza pogody dla ponad 4000 lotnisk (raport METAR i TAF).

Dostępne stacje oznaczono żółtymi i czerwonymi punktami na mapie.

Najedź kursorem aby zobaczyć nazwę stacji.

Kliknij aby zobaczyć obserwacje i prognozy pogody.

Aby zmienić mapę: kliknij na zielony przycisk z czarnym krzyżykiem, aby powiększyć; na zielony przycisk z myślnikiem, aby pomniejszyć; na zielone strzałki, aby przejść do map sąsiednich.


METAR-TAF: